createdAt,value
2018-04-14T00:01:53.484Z,53.67
2018-04-14T00:04:20.929Z,55.63
2018-04-14T00:06:48.380Z,52.62
2018-04-14T00:09:15.821Z,54.67
2018-04-14T00:11:43.272Z,55.00
2018-04-14T00:14:10.688Z,56.70
2018-04-14T00:16:38.884Z,53.60
2018-04-14T00:19:06.405Z,55.33
2018-04-14T00:21:34.605Z,56.97
2018-04-14T00:24:02.801Z,57.42
2018-04-14T00:26:30.236Z,56.92
2018-04-14T00:28:58.549Z,57.90
2018-04-14T00:31:25.968Z,60.10
2018-04-14T00:33:54.180Z,61.00
2018-04-14T00:36:21.613Z,63.42
2018-04-14T00:38:49.080Z,65.50
2018-04-14T00:41:16.582Z,66.15
2018-04-14T00:43:44.021Z,70.18
2018-04-14T00:46:11.445Z,68.28
2018-04-14T00:48:38.888Z,71.45
2018-04-14T00:51:06.336Z,76.10
2018-04-14T00:53:46.414Z,71.27
2018-04-14T00:56:13.833Z,70.82
2018-04-14T00:58:42.081Z,68.05
2018-04-14T01:01:09.611Z,69.35
2018-04-14T01:03:37.084Z,68.47
2018-04-14T01:06:04.569Z,71.45
2018-04-14T01:08:31.992Z,75.50
2018-04-14T01:10:59.433Z,68.85
2018-04-14T01:13:26.872Z,76.97
2018-04-14T01:15:54.377Z,77.80
2018-04-14T01:18:21.820Z,75.23
2018-04-14T01:20:49.263Z,76.28
2018-04-14T01:23:16.718Z,80.47
2018-04-14T01:25:44.148Z,83.07
2018-04-14T01:28:11.629Z,85.07
2018-04-14T01:30:39.192Z,85.93
2018-04-14T01:33:06.613Z,85.87
2018-04-14T01:35:34.819Z,88.87
2018-04-14T01:38:02.260Z,92.50
2018-04-14T01:40:29.753Z,94.72
2018-04-14T01:42:57.196Z,96.68
2018-04-14T01:45:24.644Z,98.93
2018-04-14T01:47:52.077Z,95.70
2018-04-14T01:50:19.574Z,93.20
2018-04-14T01:52:47.217Z,98.57
2018-04-14T01:55:14.694Z,90.20
2018-04-14T01:57:42.128Z,88.37
2018-04-14T02:00:09.560Z,86.05
2018-04-14T02:02:37.009Z,83.95
2018-04-14T02:05:05.224Z,87.22
2018-04-14T02:07:32.669Z,79.00
2018-04-14T02:10:00.144Z,73.00
2018-04-14T02:12:27.601Z,79.95
2018-04-14T02:14:55.143Z,71.37
2018-04-14T02:17:22.703Z,70.12
2018-04-14T02:19:50.145Z,69.20
2018-04-14T02:22:17.580Z,67.47
2018-04-14T02:24:45.785Z,63.20
2018-04-14T02:27:13.271Z,62.08
2018-04-14T02:29:40.716Z,58.35
2018-04-14T02:32:08.153Z,55.30
2018-04-14T02:34:35.606Z,54.67
2018-04-14T02:37:03.072Z,57.00
2018-04-14T02:39:30.502Z,55.20
2018-04-14T02:41:57.932Z,54.60
2018-04-14T02:44:25.477Z,57.88
2018-04-14T02:46:52.901Z,56.67
2018-04-14T02:49:20.369Z,57.00
2018-04-14T02:51:47.832Z,58.22
2018-04-14T02:54:15.290Z,53.78
2018-04-14T02:56:42.857Z,49.07
2018-04-14T02:59:10.293Z,47.00
2018-04-14T03:01:37.748Z,46.45
2018-04-14T03:04:05.173Z,45.05
2018-04-14T03:06:32.604Z,43.70
2018-04-14T03:09:00.924Z,41.53
2018-04-14T03:11:28.341Z,40.10
2018-04-14T03:13:56.549Z,39.97
2018-04-14T03:16:24.028Z,38.13
2018-04-14T03:18:51.502Z,33.90
2018-04-14T03:21:19.026Z,32.85
2018-04-14T03:23:46.480Z,29.60
2018-04-14T03:26:13.905Z,31.52
2018-04-14T03:28:42.097Z,31.48
2018-04-14T03:31:09.555Z,30.00
2018-04-14T03:33:36.992Z,27.00
2018-04-14T03:36:05.200Z,26.83
2018-04-14T03:38:32.627Z,23.73
2018-04-14T03:41:00.836Z,21.50
2018-04-14T03:43:28.269Z,21.65
2018-04-14T03:45:55.703Z,22.35
2018-04-14T03:48:23.902Z,21.45
2018-04-14T03:50:51.344Z,20.75
2018-04-14T03:53:18.788Z,22.90
2018-04-14T03:55:46.217Z,21.70
2018-04-14T03:58:13.658Z,20.75
2018-04-14T04:00:41.081Z,19.33
2018-04-14T04:03:08.525Z,19.37
2018-04-14T04:05:36.734Z,19.30
2018-04-14T04:08:04.174Z,17.73
2018-04-14T04:10:31.609Z,17.45
2018-04-14T04:12:59.816Z,18.17
2018-04-14T04:15:27.268Z,17.25
2018-04-14T04:17:54.721Z,17.17
2018-04-14T04:23:31.566Z,18.40
2018-04-14T04:25:59.027Z,18.90
2018-04-14T04:28:26.449Z,18.20
2018-04-14T04:30:53.893Z,18.65
2018-04-14T04:33:21.334Z,18.87
2018-04-14T04:35:48.773Z,19.85
2018-04-14T04:38:16.961Z,20.17
2018-04-14T04:40:44.404Z,19.20
2018-04-14T04:43:12.091Z,18.77
2018-04-14T04:45:39.536Z,17.62
2018-04-14T04:48:06.973Z,18.45
2018-04-14T04:50:35.180Z,18.08
2018-04-14T04:53:02.612Z,18.80
2018-04-14T04:55:30.038Z,20.55
2018-04-14T04:57:57.477Z,19.00
2018-04-14T05:00:24.924Z,19.85
2018-04-14T05:02:52.352Z,21.13
2018-04-14T05:05:19.792Z,19.95
2018-04-14T05:07:47.989Z,20.77
2018-04-14T05:10:15.432Z,19.25
2018-04-14T05:12:42.874Z,17.83
2018-04-14T05:15:11.179Z,18.07
2018-04-14T05:17:38.604Z,18.15
2018-04-14T05:20:06.833Z,18.15
2018-04-14T05:22:34.270Z,18.15
2018-04-14T05:25:01.695Z,18.10
2018-04-14T05:27:29.900Z,17.62
2018-04-14T05:29:57.345Z,16.52
2018-04-14T05:32:24.806Z,16.30
2018-04-14T05:34:52.243Z,16.67
2018-04-14T05:37:19.718Z,14.93
2018-04-14T05:39:47.132Z,14.80
2018-04-14T05:42:15.339Z,15.68
2018-04-14T05:44:42.772Z,13.95
2018-04-14T05:47:10.992Z,16.30
2018-04-14T05:49:38.430Z,15.90
2018-04-14T05:52:05.879Z,16.23
2018-04-14T05:54:33.312Z,15.20
2018-04-14T05:57:01.517Z,15.43
2018-04-14T05:59:28.952Z,15.98
2018-04-14T06:01:56.389Z,16.25
2018-04-14T06:04:23.816Z,15.70
2018-04-14T06:06:51.277Z,15.60
2018-04-14T06:09:18.709Z,14.95
2018-04-14T06:11:46.157Z,15.40
2018-04-14T06:14:13.594Z,15.25
2018-04-14T06:16:41.805Z,14.45
2018-04-14T06:19:09.260Z,14.70
2018-04-14T06:21:36.744Z,13.57
2018-04-14T06:24:04.137Z,13.43
2018-04-14T06:26:31.576Z,13.60
2018-04-14T06:28:59.794Z,14.60
2018-04-14T06:31:27.286Z,13.82
2018-04-14T06:33:54.829Z,13.73
2018-04-14T06:36:22.264Z,13.50
2018-04-14T06:38:49.746Z,13.10
2018-04-14T06:41:17.184Z,12.77
2018-04-14T06:43:44.624Z,11.70
2018-04-14T06:46:12.064Z,12.43
2018-04-14T06:48:39.504Z,12.50
2018-04-14T06:51:07.709Z,12.33
2018-04-14T06:53:35.202Z,11.32
2018-04-14T06:56:02.649Z,11.65
2018-04-14T06:58:30.276Z,10.00
2018-04-14T07:00:57.715Z,10.77
2018-04-14T07:03:25.928Z,10.10
2018-04-14T07:05:53.349Z,9.60
2018-04-14T07:08:21.560Z,10.52
2018-04-14T07:10:49.017Z,10.10
2018-04-14T07:13:16.441Z,10.20
2018-04-14T07:15:44.749Z,10.20
2018-04-14T07:18:12.235Z,10.10
2018-04-14T07:20:39.681Z,10.00
2018-04-14T07:23:07.099Z,10.07
2018-04-14T07:25:34.573Z,9.17
2018-04-14T07:28:01.997Z,9.55
2018-04-14T07:30:30.212Z,9.98
2018-04-14T07:32:57.645Z,9.50
2018-04-14T07:35:25.078Z,9.53
2018-04-14T07:37:53.286Z,9.20
2018-04-14T07:40:20.713Z,8.80
2018-04-14T07:42:48.908Z,9.05
2018-04-14T07:45:16.504Z,8.52
2018-04-14T07:47:43.967Z,8.38
2018-04-14T07:50:11.389Z,7.20
2018-04-14T07:52:38.838Z,6.90
2018-04-14T07:55:06.264Z,7.20
2018-04-14T07:57:34.584Z,7.33
2018-04-14T08:00:02.019Z,7.70
2018-04-14T08:02:30.226Z,7.40
2018-04-14T08:04:57.649Z,7.22
2018-04-14T08:07:25.080Z,7.95
2018-04-14T08:09:53.301Z,8.15
2018-04-14T08:12:20.729Z,7.85
2018-04-14T08:14:48.161Z,7.60
2018-04-14T08:17:15.613Z,7.40
2018-04-14T08:19:43.032Z,7.93
2018-04-14T08:22:10.453Z,7.00
2018-04-14T08:24:37.899Z,6.95
2018-04-14T08:27:06.085Z,7.87
2018-04-14T08:29:33.517Z,7.70
2018-04-14T08:32:00.945Z,7.30
2018-04-14T08:34:28.393Z,7.00
2018-04-14T08:36:55.821Z,7.60
2018-04-14T08:39:23.245Z,7.00
2018-04-14T08:41:51.437Z,6.65
2018-04-14T08:44:18.898Z,7.10
2018-04-14T08:46:46.337Z,7.10
2018-04-14T08:49:14.545Z,6.60
2018-04-14T08:51:41.963Z,6.37
2018-04-14T08:54:10.175Z,7.20
2018-04-14T08:56:37.593Z,7.37
2018-04-14T08:59:05.785Z,7.20
2018-04-14T09:01:33.330Z,7.12
2018-04-14T09:04:01.534Z,7.05
2018-04-14T09:06:28.991Z,7.25
2018-04-14T09:08:56.425Z,8.38
2018-04-14T09:11:24.625Z,8.35
2018-04-14T09:13:52.065Z,8.57
2018-04-14T09:16:19.508Z,8.20
2018-04-14T09:18:46.936Z,7.87
2018-04-14T09:21:14.356Z,7.90
2018-04-14T09:23:41.801Z,9.05
2018-04-14T09:26:09.255Z,8.82
2018-04-14T09:28:36.680Z,9.20
2018-04-14T09:31:04.105Z,8.55
2018-04-14T09:33:31.552Z,9.25
2018-04-14T09:35:59.800Z,9.15
2018-04-14T09:38:27.222Z,8.50
2018-04-14T09:40:55.461Z,9.00
2018-04-14T09:43:22.881Z,9.30
2018-04-14T09:45:50.316Z,9.60
2018-04-14T09:48:17.761Z,10.52
2018-04-14T09:50:45.969Z,9.60
2018-04-14T09:53:13.400Z,9.85
2018-04-14T09:55:40.916Z,9.40
2018-04-14T09:58:08.381Z,8.73
2018-04-14T10:00:41.487Z,9.90
2018-04-14T10:03:27.730Z,9.40
2018-04-14T10:05:55.166Z,8.70
2018-04-14T10:08:22.644Z,9.38
2018-04-14T10:10:50.120Z,9.00
2018-04-14T10:13:17.576Z,9.95
2018-04-14T10:15:45.025Z,10.32
2018-04-14T10:18:12.457Z,11.07
2018-04-14T10:20:39.920Z,12.23
2018-04-14T10:23:07.425Z,12.10
2018-04-14T10:25:34.853Z,12.30
2018-04-14T10:28:02.290Z,11.90
2018-04-14T10:30:29.722Z,12.15
2018-04-14T10:32:57.935Z,12.50
2018-04-14T10:35:25.378Z,11.82
2018-04-14T10:37:52.880Z,12.27
2018-04-14T10:40:20.255Z,12.52
2018-04-14T10:42:47.701Z,11.38
2018-04-14T10:45:15.908Z,12.48
2018-04-14T10:47:43.345Z,12.10
2018-04-14T10:50:11.545Z,12.33
2018-04-14T10:52:39.005Z,10.95
2018-04-14T10:55:06.452Z,12.30
2018-04-14T10:57:33.884Z,12.88
2018-04-14T11:00:02.121Z,11.50
2018-04-14T11:02:29.707Z,11.57
2018-04-14T11:04:57.076Z,11.40
2018-04-14T11:07:25.272Z,11.70
2018-04-14T11:09:52.704Z,11.47
2018-04-14T11:12:20.905Z,12.27
2018-04-14T11:14:48.357Z,12.32
2018-04-14T11:17:15.863Z,14.13
2018-04-14T11:19:43.383Z,12.48
2018-04-14T11:22:10.814Z,11.93
2018-04-14T11:24:38.260Z,13.00
2018-04-14T11:27:06.457Z,12.02
2018-04-14T11:29:33.956Z,11.65
2018-04-14T11:32:01.439Z,13.50
2018-04-14T11:34:28.866Z,12.00
2018-04-14T11:36:56.296Z,13.20
2018-04-14T11:39:23.734Z,12.30
2018-04-14T11:41:51.176Z,11.00
2018-04-14T11:44:19.369Z,10.52
2018-04-14T11:46:46.839Z,10.10
2018-04-14T11:49:14.293Z,9.90
2018-04-14T11:51:41.709Z,9.40
2018-04-14T11:54:09.960Z,9.68
2018-04-14T11:56:37.357Z,9.30
2018-04-14T11:59:04.795Z,9.20
2018-04-14T12:01:32.216Z,8.90
2018-04-14T12:04:00.469Z,8.60
2018-04-14T12:06:27.909Z,8.52
2018-04-14T12:08:55.342Z,8.48
2018-04-14T12:11:24.209Z,9.05
2018-04-14T12:13:51.642Z,7.80
2018-04-14T12:16:19.077Z,8.05
2018-04-14T12:18:46.543Z,8.70
2018-04-14T12:21:13.962Z,8.20
2018-04-14T12:23:42.153Z,8.10
2018-04-14T12:26:09.595Z,8.82
2018-04-14T12:28:37.797Z,9.32
2018-04-14T12:31:05.228Z,9.40
2018-04-14T12:33:33.442Z,9.38
2018-04-14T12:36:00.993Z,9.00
2018-04-14T12:38:28.420Z,9.48
2018-04-14T12:40:55.901Z,9.30
2018-04-14T12:43:24.105Z,9.80
2018-04-14T12:45:51.550Z,10.20
2018-04-14T12:48:19.091Z,11.10
2018-04-14T12:50:46.526Z,10.45
2018-04-14T12:53:13.983Z,10.70
2018-04-14T12:55:42.199Z,11.35
2018-04-14T12:58:09.650Z,11.70
2018-04-14T13:00:37.193Z,12.80
2018-04-14T13:03:04.617Z,12.13
2018-04-14T13:05:32.843Z,13.10
2018-04-14T13:08:00.289Z,12.70
2018-04-14T13:10:27.734Z,12.25
2018-04-14T13:12:55.232Z,12.88
2018-04-14T13:15:22.677Z,12.82
2018-04-14T13:17:50.101Z,13.83
2018-04-14T13:20:17.543Z,16.00
2018-04-14T13:22:44.981Z,15.40
2018-04-14T13:25:13.190Z,14.48
2018-04-14T13:27:40.648Z,14.80
2018-04-14T13:30:09.128Z,14.82
2018-04-14T13:32:36.561Z,15.52
2018-04-14T13:35:03.989Z,15.93
2018-04-14T13:37:31.435Z,15.15
2018-04-14T13:39:58.873Z,16.48
2018-04-14T13:42:26.407Z,16.75
2018-04-14T13:44:53.824Z,17.52
2018-04-14T13:47:22.139Z,19.12
2018-04-14T13:49:49.593Z,19.95
2018-04-14T13:52:17.050Z,20.62
2018-04-14T13:54:44.484Z,21.95
2018-04-14T13:57:11.926Z,23.95
2018-04-14T13:59:40.141Z,25.27
2018-04-14T14:02:07.628Z,25.80
2018-04-14T14:04:35.049Z,28.10
2018-04-14T14:07:02.499Z,29.83
2018-04-14T14:09:29.932Z,30.30
2018-04-14T14:11:58.161Z,31.58
2018-04-14T14:14:25.597Z,33.43
2018-04-14T14:16:53.033Z,32.70
2018-04-14T14:19:20.460Z,33.50
2018-04-14T14:21:47.917Z,34.42
2018-04-14T14:24:15.355Z,34.28
2018-04-14T14:26:42.805Z,32.80
2018-04-14T14:29:10.326Z,33.58
2018-04-14T14:31:37.764Z,33.08
2018-04-14T14:34:05.254Z,33.45
2018-04-14T14:36:32.701Z,33.75
2018-04-14T14:39:00.134Z,31.90
2018-04-14T14:41:28.436Z,33.57
2018-04-14T14:43:55.844Z,34.53
2018-04-14T14:46:24.061Z,33.78
2018-04-14T14:48:51.624Z,34.97
2018-04-14T14:51:19.105Z,35.25
2018-04-14T14:53:46.542Z,34.25
2018-04-14T14:56:14.020Z,35.60
2018-04-14T14:58:41.495Z,36.72
2018-04-14T15:01:08.965Z,36.10
2018-04-14T15:03:36.464Z,36.87
2018-04-14T15:06:03.889Z,37.22
2018-04-14T15:08:32.126Z,37.80
2018-04-14T15:10:59.561Z,38.72
2018-04-14T15:13:27.013Z,39.60
2018-04-14T15:15:54.461Z,42.30
2018-04-14T15:18:21.912Z,40.50
2018-04-14T15:20:49.352Z,38.00
2018-04-14T15:23:16.852Z,39.92
2018-04-14T15:25:44.324Z,38.17
2018-04-14T15:28:11.949Z,35.97
2018-04-14T15:30:39.366Z,35.50
2018-04-14T15:33:07.573Z,38.30
2018-04-14T15:35:35.001Z,38.72
2018-04-14T15:38:03.217Z,39.50
2018-04-14T15:40:30.681Z,39.70
2018-04-14T15:42:58.145Z,41.10
2018-04-14T15:45:25.578Z,44.08
2018-04-14T15:47:53.044Z,42.45
2018-04-14T15:50:20.620Z,40.95
2018-04-14T15:52:48.069Z,41.67
2018-04-14T15:55:15.500Z,42.05
2018-04-14T15:57:42.984Z,43.42
2018-04-14T16:00:10.440Z,44.65
2018-04-14T16:02:37.908Z,44.13
2018-04-14T16:05:05.469Z,45.75
2018-04-14T16:07:32.916Z,43.70
2018-04-14T16:10:00.372Z,44.30
2018-04-14T16:12:27.907Z,44.78
2018-04-14T16:14:55.332Z,43.95
2018-04-14T16:17:23.741Z,44.60
2018-04-14T16:19:51.211Z,47.88
2018-04-14T16:22:18.677Z,42.72
2018-04-14T16:24:46.142Z,41.85
2018-04-14T16:27:13.592Z,40.50
2018-04-14T16:29:41.127Z,41.03
2018-04-14T16:32:08.558Z,42.25
2018-04-14T16:34:36.859Z,41.95
2018-04-14T16:37:04.277Z,40.40
2018-04-14T16:39:32.482Z,40.63
2018-04-14T16:41:59.950Z,40.70
2018-04-14T16:44:27.398Z,39.20
2018-04-14T16:46:54.859Z,48.08
2018-04-14T16:49:22.331Z,42.00
2018-04-14T16:51:49.724Z,42.22
2018-04-14T16:54:18.049Z,40.53
2018-04-14T16:56:45.521Z,40.00
2018-04-14T16:59:12.977Z,44.22
2018-04-14T17:01:40.420Z,42.73
2018-04-14T17:04:07.857Z,41.10
2018-04-14T17:06:35.296Z,42.38
2018-04-14T17:09:03.603Z,42.65
2018-04-14T17:11:31.017Z,43.63
2018-04-14T17:13:59.231Z,42.97
2018-04-14T17:16:26.892Z,44.90
2018-04-14T17:18:54.335Z,43.03
2018-04-14T17:21:22.520Z,43.70
2018-04-14T17:23:50.853Z,43.43
2018-04-14T17:26:18.357Z,44.78
2018-04-14T17:28:45.792Z,45.28
2018-04-14T17:31:13.234Z,44.33
2018-04-14T17:33:41.547Z,45.53
2018-04-14T17:36:08.965Z,44.03
2018-04-14T17:38:37.183Z,44.75
2018-04-14T17:41:04.620Z,45.15
2018-04-14T17:43:32.077Z,45.50
2018-04-14T17:46:00.272Z,45.78
2018-04-14T17:48:27.754Z,45.92
2018-04-14T17:50:55.210Z,44.78
2018-04-14T17:53:22.735Z,46.37
2018-04-14T17:55:50.201Z,46.03
2018-04-14T17:58:17.626Z,47.72
2018-04-14T18:00:45.833Z,43.60
2018-04-14T18:03:13.285Z,45.47
2018-04-14T18:05:40.743Z,45.37
2018-04-14T18:08:08.173Z,45.97
2018-04-14T18:10:35.604Z,45.92
2018-04-14T18:13:03.049Z,47.13
2018-04-14T18:15:30.567Z,46.08
2018-04-14T18:17:57.998Z,46.47
2018-04-14T18:20:26.198Z,50.33
2018-04-14T18:22:53.650Z,46.85
2018-04-14T18:25:21.097Z,45.75
2018-04-14T18:27:49.317Z,46.67
2018-04-14T18:30:16.754Z,48.38
2018-04-14T18:32:44.209Z,45.67
2018-04-14T18:35:11.675Z,46.72
2018-04-14T18:37:39.116Z,48.40
2018-04-14T18:40:06.554Z,47.40
2018-04-14T18:42:34.771Z,49.60
2018-04-14T18:45:02.213Z,51.13
2018-04-14T18:47:29.712Z,48.42
2018-04-14T18:49:57.127Z,51.58
2018-04-14T18:52:24.556Z,51.35
2018-04-14T18:54:52.004Z,49.83
2018-04-14T18:57:20.209Z,49.70
2018-04-14T18:59:47.673Z,50.50
2018-04-14T19:02:15.125Z,49.75
2018-04-14T19:04:42.715Z,47.70
2018-04-14T19:07:10.348Z,49.20
2018-04-14T19:09:37.918Z,49.10
2018-04-14T19:12:05.343Z,49.25
2018-04-14T19:14:32.797Z,51.60
2018-04-14T19:17:00.276Z,50.92
2018-04-14T19:19:27.696Z,50.40
2018-04-14T19:21:55.940Z,50.35
2018-04-14T19:24:23.380Z,49.10
2018-04-14T19:26:50.814Z,46.47
2018-04-14T19:29:18.260Z,47.22
2018-04-14T19:31:45.708Z,48.95
2018-04-14T19:34:13.161Z,49.88
2018-04-14T19:36:41.364Z,50.60
2018-04-14T19:39:08.809Z,50.53
2018-04-14T19:41:36.288Z,52.33
2018-04-14T19:44:03.760Z,52.70
2018-04-14T19:46:31.196Z,51.25
2018-04-14T19:48:58.641Z,51.07
2018-04-14T19:51:26.100Z,52.60
2018-04-14T19:53:53.534Z,52.17
2018-04-14T19:56:21.080Z,50.45
2018-04-14T19:58:48.492Z,49.13
2018-04-14T20:01:16.030Z,53.03
2018-04-14T20:03:43.453Z,53.60
2018-04-14T20:06:11.862Z,53.15
2018-04-14T20:08:39.344Z,55.05
2018-04-14T20:11:06.913Z,52.10
2018-04-14T20:13:34.452Z,51.28
2018-04-14T20:16:01.920Z,52.13
2018-04-14T20:18:29.356Z,51.42
2018-04-14T20:20:56.798Z,53.07
2018-04-14T20:23:24.245Z,54.60
2018-04-14T20:25:51.710Z,54.53
2018-04-14T20:28:19.163Z,53.08
2018-04-14T20:30:46.768Z,53.13
2018-04-14T20:33:14.213Z,55.67
2018-04-14T20:35:41.750Z,55.90
2018-04-14T20:38:09.172Z,55.30
2018-04-14T20:40:37.377Z,54.60
2018-04-14T20:43:04.937Z,55.75
2018-04-14T20:45:32.385Z,56.22
2018-04-14T20:47:59.833Z,55.50
2018-04-14T20:50:27.272Z,53.92
2018-04-14T20:52:55.481Z,55.83
2018-04-14T20:55:23.041Z,54.22
2018-04-14T20:57:50.482Z,54.65
2018-04-14T21:00:17.925Z,57.40
2018-04-14T21:02:46.231Z,54.08
2018-04-14T21:05:13.690Z,54.67
2018-04-14T21:07:41.129Z,56.50
2018-04-14T21:10:08.572Z,55.67
2018-04-14T21:12:36.050Z,54.45
2018-04-14T21:15:03.507Z,56.67
2018-04-14T21:17:30.944Z,55.70
2018-04-14T21:19:58.427Z,55.88
2018-04-14T21:22:25.892Z,53.55
2018-04-14T21:24:53.435Z,53.40
2018-04-14T21:27:20.866Z,53.72
2018-04-14T21:29:49.090Z,56.10
2018-04-14T21:32:16.516Z,61.72
2018-04-14T21:34:43.954Z,54.57
2018-04-14T21:37:11.396Z,55.97
2018-04-14T21:39:39.605Z,57.53
2018-04-14T21:42:07.109Z,55.42
2018-04-14T21:44:34.532Z,55.93
2018-04-14T21:47:01.977Z,57.58
2018-04-14T21:49:29.404Z,57.80
2018-04-14T21:51:56.888Z,57.58
2018-04-14T21:54:24.321Z,58.95
2018-04-14T21:56:52.533Z,58.20
2018-04-14T21:59:19.996Z,59.20
2018-04-14T22:01:47.470Z,58.28
2018-04-14T22:04:14.922Z,58.50
2018-04-14T22:06:42.365Z,58.17
2018-04-14T22:09:09.904Z,58.55
2018-04-14T22:11:37.359Z,58.50
2018-04-14T22:14:04.787Z,59.03
2018-04-14T22:16:32.233Z,58.45
2018-04-14T22:19:00.451Z,62.15
2018-04-14T22:21:27.880Z,62.80
2018-04-14T22:23:55.384Z,62.08
2018-04-14T22:26:22.953Z,57.42
2018-04-14T22:28:50.481Z,54.00
2018-04-14T22:31:17.936Z,59.28
2018-04-14T22:33:45.392Z,61.20
2018-04-14T22:36:12.828Z,57.70
2018-04-14T22:38:40.294Z,61.78
2018-04-14T22:41:08.497Z,60.93
2018-04-14T22:43:35.935Z,67.80
2018-04-14T22:46:03.424Z,61.30
2018-04-14T22:48:30.957Z,59.28
2018-04-14T22:50:58.439Z,58.10
2018-04-14T22:53:25.873Z,56.90
2018-04-14T22:55:53.323Z,63.50
2018-04-14T22:58:20.785Z,61.95
2018-04-14T23:00:48.229Z,60.05
2018-04-14T23:03:15.673Z,61.93
2018-04-14T23:05:43.176Z,59.63
2018-04-14T23:08:10.613Z,59.60
2018-04-14T23:10:38.057Z,58.40
2018-04-14T23:13:05.483Z,59.28
2018-04-14T23:15:33.694Z,60.47
2018-04-14T23:18:01.181Z,59.15
2018-04-14T23:20:28.625Z,59.47
2018-04-14T23:22:56.085Z,60.10
2018-04-14T23:25:23.540Z,57.67
2018-04-14T23:27:50.984Z,63.10
2018-04-14T23:30:18.537Z,70.55
2018-04-14T23:32:45.981Z,61.22
2018-04-14T23:35:13.451Z,59.17
2018-04-14T23:37:40.915Z,61.78
2018-04-14T23:40:08.352Z,60.35
2018-04-14T23:42:35.848Z,63.10
2018-04-14T23:45:03.377Z,68.63
2018-04-14T23:47:30.861Z,61.83
2018-04-14T23:49:58.317Z,61.78
2018-04-14T23:52:25.760Z,62.90
2018-04-14T23:54:53.220Z,66.47
2018-04-14T23:57:20.804Z,72.00
2018-04-14T23:59:48.341Z,67.60
